Aérodrome :
LOGIN :

S'inscrire | Disclaimer

   EN    FR    IT 

 










Légende :    VFR   VFR Marginal   IFR   IFR Intensif   IFR Très Intensif
Visi : 
Plafond : 
>= 8 km
>= 3000ft
5 à 8 km
1000 à 3000 ft
1500m à 5 km
500 à 1000 ft
800 à 1500m
200 à 500 ft
< 800m
< 200 ft
Symboles :   Orages  Brouillard  Fortes neiges  Fortes précipitations  Vent > 20 kt
SIGMETs :   Divers  Orages  Givrage  Turbulence  Onde Orograph.  Cendres Volcan.







- Altitude de l'aérodrome : 1071 ft
- Code IATA : LWO


UKLL - L'viv

DERNIER METAR :
  • 201209Z 16006MPS 9999 SCT033CB BKN033 23/17 Q1006 R13/D TEMPO VRB10G17MPS -TSRAGR SQ BKN015CB

METARs EXPIRÉS :
  • 201200Z 16006MPS 9999 VCTS SCT033CB BKN033 23/18 Q1006 R13/CLRD// TEMPO VRB10G17MPS -TSRAGR SQ BKN015CB
  • 201145Z 16006G11MPS 130V200 9999 VCTS SCT031CB BKN031 23/18 Q1006 R13/D TEMPO VRB10G17MPS -TSRAGR SQ BKN015CB
  • 201130Z 15006MPS 9999 VCTS SCT031CB BKN031 24/18 Q1007 R13/CLRD// TEMPO VRB10G17MPS -TSRAGR SQ BKN015CB
  • 201100Z 14006MPS 9999 SCT031CB BKN031 23/17 Q1007 R13/CLRD// TEMPO VRB10G17MPS -TSRAGR SQ BKN015CB
  • 201030Z 15005MPS 120V180 9999 BKN029 23/16 Q1007 R13/D TEMPO VRB10G17MPS -TSRAGR SQ BKN015CB
  • 201000Z 16004MPS 130V190 9999 SCT025 22/17 Q1008 R13/CLRD// TEMPO VRB10G17MPS -TSRAGR SQ BKN015CB
  • 200930Z 14006MPS CAVOK 22/17 Q1008 R13/D NOSIG

TAF TAF UKLL
Valide du 20 à 12h jusqu'au 21 à 12h UTC


201106Z 2012/2112 15006G12MPS 3000 -SHRA BR SCT003 BKN007 BKN020CB
TEMPO 2012/2019 VRB10G17MPS 1100 TSRAGR SQ BKN015CB
TEMPO 2019/2023 1400 TSRAGR SCT004 BKN015CB
BECMG 2023/2024 VRB01MPS
BECMG 2103/2104 23005G12MPS
Pas de NOTAMs connus pour ce terrain.
2 SIGMETs publiés pour la FIR L'VIV (UKLV) :
 
Turbulence forte
UKLV SIGMET 3 VALID 201200/201600 UKLW
UKLV LVIV FIR/UIR SEV TURB FCST ENTIRE FIR SFC/1500M MOV NW 40KMH NC=
Orages noyés dans la masse avec grêle
UKLV SIGMET 2 VALID 201030/201300 UKLW
UKLV LVIV FIR/UIR EMBD TSGR FCST ENTIRE FIR/UIR TOP FL400 MOV NW 40KMH INTSF=



MET'MAP, la Météo Aéronautique d'un coup d'oeil ! - Copyright ORBIFLY Décembre 2007 - Disclaimer

ORBIFLY MET'MAP TEAM :

Programmation & Développement : Alexandra Zaïnal
Conception & Développement : Baudouin d'Aumeries
Co-Programmation & Développement : Marc-Olivier Méhu
Soutien technique & logistique : Manuel Goepfert

Contact : metmap@orbifly.com




SOURCES & CREDITS :

   NOAA